Time;durP1;ratioP1;P1;durP2;ratioP2;P2;SDS_P1;SDS_P2;PMS_P1;PMS_P2;Temp;Humidity;BMP_temperature;BMP_pressure;BME280_temperature;BME280_humidity;BME280_pressure;Samples;Min_cycle;Max_cycle;Signal;HPM_P1;HPM_P2
2023/04/18 00:01:14;;;;;;;4.90;2.15;;;;;;;8.91;79.70;102508.81;6258448;28;20053;-78
2023/04/18 00:04:17;;;;;;;3.95;2.15;;;;;;;8.86;80.02;102503.66;6274449;28;20055;-78
2023/04/18 00:07:18;;;;;;;5.63;2.30;;;;;;;8.83;80.41;102503.69;6273953;28;20103;-78
2023/04/18 00:10:20;;;;;;;3.92;2.25;;;;;;;8.94;80.20;102508.75;6274771;28;20049;-78
2023/04/18 00:13:23;;;;;;;2.35;1.77;;;;;;;8.97;79.91;102512.19;6274455;28;20064;-78
2023/04/18 00:16:24;;;;;;;3.42;2.08;;;;;;;8.93;80.93;102512.25;6274962;28;20060;-78
2023/04/18 00:19:26;;;;;;;4.43;2.10;;;;;;;8.92;81.34;102505.28;6274300;28;20049;-77
2023/04/18 00:22:27;;;;;;;3.85;1.90;;;;;;;8.97;80.03;102519.19;6272332;28;20053;-78
2023/04/18 00:25:29;;;;;;;3.67;2.00;;;;;;;8.94;80.98;102514.84;6274456;28;20052;-77
2023/04/18 00:28:32;;;;;;;3.95;1.98;;;;;;;8.89;83.91;102514.06;6274178;28;20433;-77
2023/04/18 00:31:33;;;;;;;3.85;2.30;;;;;;;8.93;83.87;102513.13;6275569;28;20052;-77
2023/04/18 00:34:34;;;;;;;4.28;2.53;;;;;;;8.74;83.80;102511.72;6278433;28;20354;-77
2023/04/18 00:37:36;;;;;;;5.90;2.65;;;;;;;8.71;86.04;102515.25;6278980;28;20045;-77
2023/04/18 00:40:37;;;;;;;6.68;3.33;;;;;;;8.70;88.03;102517.91;6278786;28;20322;-77
2023/04/18 00:43:40;;;;;;;6.00;3.15;;;;;;;8.49;87.87;102514.75;6278623;28;20045;-77
2023/04/18 00:46:41;;;;;;;5.85;2.75;;;;;;;8.50;89.53;102519.13;6273288;28;20044;-77
2023/04/18 00:49:43;;;;;;;6.07;3.17;;;;;;;8.46;90.17;102509.56;6278467;28;20045;-77
2023/04/18 00:52:46;;;;;;;6.30;2.70;;;;;;;8.46;91.24;102520.06;6278323;28;20041;-77
2023/04/18 00:55:48;;;;;;;6.07;2.78;;;;;;;8.47;91.11;102518.28;6278608;28;20155;-77
2023/04/18 00:58:51;;;;;;;5.47;3.22;;;;;;;8.34;90.45;102521.06;6278528;28;20052;-77
2023/04/18 01:01:53;;;;;;;5.00;2.30;;;;;;;8.30;92.00;102515.91;6278065;28;20049;-77
2023/04/18 01:04:55;;;;;;;5.47;3.00;;;;;;;8.26;91.86;102522.94;6278876;28;20045;-77
2023/04/18 01:07:59;;;;;;;5.22;2.65;;;;;;;8.18;92.66;102518.72;6277943;28;20053;-79
2023/04/18 01:11:01;;;;;;;7.22;3.15;;;;;;;8.24;94.53;102523.84;6277990;28;20377;-77
2023/04/18 01:14:05;;;;;;;4.43;2.90;;;;;;;8.27;93.84;102521.22;6277446;28;20041;-77
2023/04/18 01:17:09;;;;;;;8.73;3.42;;;;;;;8.20;94.36;102520.41;6277977;28;20055;-77
2023/04/18 01:20:12;;;;;;;3.97;2.63;;;;;;;8.13;94.41;102513.56;6277282;28;20052;-77
2023/04/18 01:23:14;;;;;;;6.82;2.83;;;;;;;8.08;95.12;102520.59;6258596;28;20053;-77
2023/04/18 01:26:17;;;;;;;6.75;2.45;;;;;;;8.10;98.11;102527.53;6274325;28;20049;-78
2023/04/18 01:29:18;;;;;;;5.38;3.05;;;;;;;8.14;97.74;102510.03;6269570;28;20053;-78
2023/04/18 01:32:20;;;;;;;3.22;2.25;;;;;;;8.16;99.54;102517.88;6277259;28;20049;-78
2023/04/18 01:35:21;;;;;;;6.78;2.70;;;;;;;8.12;99.15;102517.03;6277337;28;20437;-78
2023/04/18 01:38:23;;;;;;;5.50;2.58;;;;;;;8.05;99.87;102518.91;6277431;28;20074;-78
2023/04/18 01:41:27;;;;;;;4.45;2.35;;;;;;;8.04;100.00;102516.28;6277180;28;20060;-78
2023/04/18 01:44:29;;;;;;;7.57;3.13;;;;;;;7.91;100.00;102518.22;6276730;28;20044;-78
2023/04/18 01:47:30;;;;;;;5.22;2.78;;;;;;;8.06;100.00;102510.16;6276924;28;20049;-78
2023/04/18 01:50:31;;;;;;;8.57;3.53;;;;;;;7.84;100.00;102508.72;6277137;28;20052;-78
2023/04/18 01:53:33;;;;;;;8.55;2.47;;;;;;;7.83;100.00;102510.47;6277035;28;20044;-78
2023/04/18 01:56:35;;;;;;;5.53;2.88;;;;;;;7.87;100.00;102511.28;6277035;28;20037;-78
2023/04/18 01:59:37;;;;;;;6.45;2.85;;;;;;;7.74;100.00;102507.97;6276980;28;20322;-78
2023/04/18 02:02:38;;;;;;;7.68;3.13;;;;;;;7.83;100.00;102505.22;6277121;28;20052;-78
2023/04/18 02:05:40;;;;;;;10.18;4.00;;;;;;;7.58;100.00;102504.66;6276603;28;20448;-78
2023/04/18 02:08:41;;;;;;;6.55;3.22;;;;;;;7.43;100.00;102506.63;6276540;28;20041;-78
2023/04/18 02:11:44;;;;;;;8.02;2.67;;;;;;;7.42;100.00;102511.00;6276890;28;20056;-78
2023/04/18 02:14:45;;;;;;;5.78;3.33;;;;;;;7.53;100.00;102508.25;6276109;28;20044;-78
2023/04/18 02:17:47;;;;;;;6.38;3.35;;;;;;;7.53;100.00;102518.69;6276328;28;20075;-78
2023/04/18 02:20:50;;;;;;;16.77;2.92;;;;;;;7.50;100.00;102521.38;6276294;28;20056;-78
2023/04/18 02:23:51;;;;;;;8.02;3.97;;;;;;;7.42;100.00;102517.97;6276240;28;20052;-78
2023/04/18 02:26:54;;;;;;;6.00;3.53;;;;;;;7.48;100.00;102517.91;6276109;28;20049;-78
2023/04/18 02:29:56;;;;;;;6.78;3.63;;;;;;;7.47;100.00;102518.78;6275235;28;20053;-78
2023/04/18 02:32:57;;;;;;;7.55;3.58;;;;;;;7.46;100.00;102515.31;6281981;28;20045;-77
2023/04/18 02:36:00;;;;;;;6.97;3.70;;;;;;;7.50;100.00;102521.38;6270543;28;20441;-78
2023/04/18 02:39:02;;;;;;;8.48;4.03;;;;;;;7.38;100.00;102514.53;6275232;28;20045;-78
2023/04/18 02:42:04;;;;;;;8.40;4.45;;;;;;;7.44;100.00;102518.81;6275733;28;20052;-78
2023/04/18 02:45:07;;;;;;;7.25;3.90;;;;;;;7.43;100.00;102515.34;6270853;28;20056;-78
2023/04/18 02:48:09;;;;;;;6.93;3.22;;;;;;;7.32;100.00;102519.84;6275686;28;20052;-78
2023/04/18 02:51:10;;;;;;;6.55;3.53;;;;;;;7.44;100.00;102521.44;6275653;28;20051;-78
2023/04/18 02:54:11;;;;;;;9.10;3.60;;;;;;;7.42;100.00;102523.22;6274713;28;20053;-78
2023/04/18 02:57:14;;;;;;;8.90;4.15;;;;;;;7.39;100.00;102529.34;6275224;28;20055;-78
2023/04/18 03:00:16;;;;;;;8.15;3.47;;;;;;;7.44;100.00;102526.66;6267803;28;20049;-78
2023/04/18 03:03:17;;;;;;;7.90;3.85;;;;;;;7.47;100.00;102522.25;6275567;28;20053;-78
2023/04/18 03:06:19;;;;;;;8.30;3.33;;;;;;;7.34;100.00;102524.16;6275716;28;20049;-78
2023/04/18 03:09:20;;;;;;;6.18;3.67;;;;;;;7.28;100.00;102523.38;6275317;28;20045;-78
2023/04/18 03:12:23;;;;;;;8.45;3.28;;;;;;;7.37;100.00;102529.34;6275306;28;20053;-78
2023/04/18 03:15:24;;;;;;;6.40;3.35;;;;;;;7.35;100.00;102528.50;6274887;28;20045;-78
2023/04/18 03:18:25;;;;;;;8.02;3.78;;;;;;;7.41;100.00;102524.09;6275054;28;20045;-78
2023/04/18 03:21:27;;;;;;;6.38;3.50;;;;;;;7.45;100.00;102521.44;6275226;28;20056;-78
2023/04/18 03:24:28;;;;;;;9.38;3.78;;;;;;;7.51;100.00;102525.72;6274794;28;20049;-78
2023/04/18 03:27:31;;;;;;;8.10;3.85;;;;;;;7.51;100.00;102526.59;6274997;28;20049;-78
2023/04/18 03:30:33;;;;;;;8.77;3.53;;;;;;;7.46;100.00;102524.91;6273217;28;20065;-78
2023/04/18 03:33:34;;;;;;;9.68;4.65;;;;;;;7.40;100.00;102524.97;6274859;28;20053;-78
2023/04/18 03:36:36;;;;;;;9.10;3.30;;;;;;;7.41;100.00;102522.34;6274823;28;20124;-78
2023/04/18 03:39:37;;;;;;;8.80;3.95;;;;;;;7.34;100.00;102534.63;6275200;28;20052;-78
2023/04/18 03:42:40;;;;;;;12.13;4.28;;;;;;;7.24;100.00;102524.28;6272419;28;20243;-78
2023/04/18 03:45:42;;;;;;;6.95;3.15;;;;;;;7.38;100.00;102530.22;6273184;28;20037;-78
2023/04/18 03:48:44;;;;;;;11.75;3.97;;;;;;;7.38;100.00;102536.31;6274874;28;20045;-78
2023/04/18 03:51:47;;;;;;;7.80;3.92;;;;;;;7.35;100.00;102538.94;6274739;28;20045;-78
2023/04/18 03:54:48;;;;;;;7.03;3.53;;;;;;;7.14;100.00;102531.38;6271518;28;20045;-78
2023/04/18 03:57:51;;;;;;;7.80;4.07;;;;;;;7.16;100.00;102544.41;6274373;28;20052;-78
2023/04/18 04:00:52;;;;;;;9.25;3.72;;;;;;;7.17;100.00;102536.53;6271213;28;20051;-78
2023/04/18 04:03:54;;;;;;;6.70;3.28;;;;;;;7.12;100.00;102543.56;6264640;28;20056;-78
2023/04/18 04:06:55;;;;;;;9.13;3.80;;;;;;;7.23;100.00;102538.25;6277252;28;20056;-78
2023/04/18 04:09:57;;;;;;;8.43;3.70;;;;;;;7.28;100.00;102544.28;6279391;28;20060;-78
2023/04/18 04:13:00;;;;;;;7.47;4.20;;;;;;;7.29;100.00;102546.00;6279124;28;20048;-78
2023/04/18 04:16:01;;;;;;;10.05;4.43;;;;;;;7.33;100.00;102545.09;6278775;28;20041;-78
2023/04/18 04:19:03;;;;;;;9.13;4.32;;;;;;;7.06;100.00;102541.88;6278404;28;20056;-78
2023/04/18 04:22:04;;;;;;;8.82;4.50;;;;;;;7.04;100.00;102541.06;6278197;28;20136;-78
2023/04/18 04:25:07;;;;;;;10.70;4.45;;;;;;;7.08;100.00;102549.69;6279245;28;20048;-78
2023/04/18 04:28:09;;;;;;;11.38;4.35;;;;;;;7.10;100.00;102545.34;6278991;28;20055;-78
2023/04/18 04:31:11;;;;;;;12.43;4.93;;;;;;;7.15;100.00;102547.91;6270145;28;20183;-78
2023/04/18 04:34:12;;;;;;;8.13;4.65;;;;;;;7.19;100.00;102552.22;6273240;28;20060;-78
2023/04/18 04:37:14;;;;;;;13.00;4.63;;;;;;;7.19;100.00;102560.06;6270489;28;20052;-78
2023/04/18 04:40:16;;;;;;;9.18;4.72;;;;;;;7.24;100.00;102553.03;6278651;28;20182;-78
2023/04/18 04:43:19;;;;;;;10.25;5.22;;;;;;;7.26;100.00;102561.72;6278782;28;20049;-78
2023/04/18 04:46:21;;;;;;;12.63;5.43;;;;;;;7.23;100.00;102567.88;6278150;28;20045;-78
2023/04/18 04:49:23;;;;;;;10.75;4.50;;;;;;;7.28;100.00;102566.06;6278450;28;20055;-78
2023/04/18 04:52:24;;;;;;;9.60;4.85;;;;;;;7.33;100.00;102568.63;6278668;28;20045;-78
2023/04/18 04:55:26;;;;;;;9.77;4.70;;;;;;;7.30;100.00;102568.66;6278601;28;20051;-78
2023/04/18 04:58:28;;;;;;;13.20;5.63;;;;;;;7.43;100.00;102566.78;6278057;28;20134;-78
2023/04/18 05:01:30;;;;;;;12.50;5.18;;;;;;;7.44;100.00;102569.38;6278352;28;20377;-78
2023/04/18 05:04:31;;;;;;;10.30;5.03;;;;;;;7.40;100.00;102564.19;6278310;28;20060;-78
2023/04/18 05:07:33;;;;;;;10.90;4.78;;;;;;;7.42;100.00;102572.91;6277128;28;20235;-77
2023/04/18 05:10:35;;;;;;;9.60;4.75;;;;;;;7.19;100.00;102566.16;6278082;28;20059;-78
2023/04/18 05:13:38;;;;;;;10.57;4.07;;;;;;;7.37;100.00;102572.97;6277873;28;20044;-78
2023/04/18 05:16:40;;;;;;;10.82;4.90;;;;;;;7.20;100.00;102577.50;6277794;28;20044;-78
2023/04/18 05:19:42;;;;;;;14.15;6.35;;;;;;;7.35;100.00;102572.09;6276759;28;20074;-78
2023/04/18 05:22:44;;;;;;;9.43;4.28;;;;;;;7.40;100.00;102572.03;6277825;28;20052;-78
2023/04/18 05:25:45;;;;;;;10.80;5.00;;;;;;;7.40;100.00;102578.13;6276715;28;20124;-78
2023/04/18 05:28:49;;;;;;;13.38;5.35;;;;;;;7.40;100.00;102578.13;6277588;28;20052;-78
2023/04/18 05:31:50;;;;;;;9.60;5.45;;;;;;;7.44;100.00;102582.44;6277161;28;20092;-78
2023/04/18 05:34:51;;;;;;;17.02;6.13;;;;;;;7.43;100.00;102585.97;6277367;28;20441;-77
2023/04/18 05:37:53;;;;;;;11.90;5.05;;;;;;;7.45;100.00;102584.22;6276630;28;20456;-77
2023/04/18 05:40:55;;;;;;;10.63;5.10;;;;;;;7.51;100.00;102597.22;6276636;28;20430;-78
2023/04/18 05:43:58;;;;;;;12.27;5.45;;;;;;;7.24;100.00;102589.66;6274715;28;20437;-77
2023/04/18 05:47:00;;;;;;;10.40;5.85;;;;;;;7.20;100.00;102588.81;6276657;28;20072;-78
2023/04/18 05:50:01;;;;;;;14.60;4.90;;;;;;;7.22;100.00;102594.00;6276663;28;20451;-78
2023/04/18 05:53:03;;;;;;;10.07;5.70;;;;;;;7.29;100.00;102600.94;6276649;28;20048;-78
2023/04/18 05:56:05;;;;;;;8.43;4.65;;;;;;;7.30;100.00;102602.66;6276603;28;20330;-78
2023/04/18 05:59:08;;;;;;;10.30;4.72;;;;;;;7.31;100.00;102610.50;6275985;28;20044;-78
2023/04/18 06:02:12;;;;;;;14.52;4.57;;;;;;;7.26;100.00;102609.66;6276554;28;20144;-78
2023/04/18 06:05:13;;;;;;;13.13;5.70;;;;;;;7.34;100.00;102605.22;6276482;28;20122;-77
2023/04/18 06:08:15;;;;;;;11.07;5.00;;;;;;;7.32;100.00;102611.38;6268449;28;20456;-78
2023/04/18 06:11:18;;;;;;;8.73;4.07;;;;;;;7.44;100.00;102615.59;6276201;28;20041;-78
2023/04/18 06:14:21;;;;;;;12.48;5.35;;;;;;;7.40;100.00;102609.53;6276098;28;20045;-78
2023/04/18 06:17:23;;;;;;;10.90;4.60;;;;;;;7.44;100.00;102613.84;6275911;28;20056;-78
2023/04/18 06:20:24;;;;;;;9.10;4.35;;;;;;;7.48;100.00;102617.31;6273588;28;20048;-78
2023/04/18 06:23:25;;;;;;;10.70;4.82;;;;;;;7.42;100.00;102617.38;6276372;28;20045;-78
2023/04/18 06:26:27;;;;;;;9.70;4.53;;;;;;;7.49;100.00;102616.41;6275754;28;20047;-78
2023/04/18 06:29:32;;;;;;;10.88;5.28;;;;;;;7.57;100.00;102618.06;6275979;28;20425;-78
2023/04/18 06:32:33;;;;;;;12.05;5.03;;;;;;;7.52;100.00;102625.09;6276340;28;20057;-78
2023/04/18 06:35:35;;;;;;;11.45;5.35;;;;;;;7.57;100.00;102625.06;6276414;28;20049;-78
2023/04/18 06:38:36;;;;;;;8.98;4.85;;;;;;;7.45;100.00;102623.44;6275960;28;20389;-78
2023/04/18 06:41:37;;;;;;;8.80;4.55;;;;;;;7.55;100.00;102626.84;6276658;28;20053;-79
2023/04/18 06:44:41;;;;;;;11.48;4.72;;;;;;;7.67;100.00;102631.03;6276032;28;20044;-78
2023/04/18 06:47:43;;;;;;;10.30;4.95;;;;;;;7.77;100.00;102632.72;6276005;28;20060;-78
2023/04/18 06:50:45;;;;;;;11.27;5.22;;;;;;;7.81;100.00;102622.19;6276105;28;20049;-78
2023/04/18 06:53:47;;;;;;;7.85;4.13;;;;;;;7.80;100.00;102622.19;6275562;28;20048;-78
2023/04/18 06:56:48;;;;;;;9.75;4.63;;;;;;;7.84;100.00;102626.50;6275861;28;20049;-78
2023/04/18 06:59:51;;;;;;;10.82;4.85;;;;;;;7.82;100.00;102633.50;6275835;28;20441;-78
2023/04/18 07:02:52;;;;;;;11.38;5.15;;;;;;;7.86;100.00;102635.22;6275939;28;20060;-77
2023/04/18 07:05:54;;;;;;;10.00;5.00;;;;;;;7.81;100.00;102629.13;6275531;28;20056;-77
2023/04/18 07:08:58;;;;;;;10.70;5.40;;;;;;;7.82;100.00;102634.38;6275529;28;20049;-78
2023/04/18 07:12:00;;;;;;;10.38;4.57;;;;;;;7.94;100.00;102650.81;6275642;28;20079;-78
2023/04/18 07:15:03;;;;;;;8.52;4.32;;;;;;;8.03;100.00;102648.94;6275438;28;20045;-77
2023/04/18 07:18:05;;;;;;;11.52;4.45;;;;;;;8.01;100.00;102649.88;6275296;28;20048;-77
2023/04/18 07:21:06;;;;;;;10.38;5.20;;;;;;;8.16;100.00;102646.19;6275213;28;20045;-77
2023/04/18 07:24:08;;;;;;;8.30;3.90;;;;;;;8.13;100.00;102647.97;6275131;28;20052;-77
2023/04/18 07:27:09;;;;;;;12.05;5.07;;;;;;;8.09;100.00;102643.66;6272158;28;20044;-78
2023/04/18 07:30:13;;;;;;;14.32;5.28;;;;;;;8.11;100.00;102644.47;6272889;28;20568;-77
2023/04/18 07:33:14;;;;;;;10.25;4.25;;;;;;;8.11;100.00;102641.00;6274767;28;20053;-79
2023/04/18 07:36:16;;;;;;;10.10;4.75;;;;;;;8.05;100.00;102638.47;6270566;28;20475;-78
2023/04/18 07:39:17;;;;;;;9.88;4.38;;;;;;;8.13;100.00;102637.50;6274547;28;20049;-79
2023/04/18 07:42:19;;;;;;;11.18;4.80;;;;;;;8.16;100.00;102638.31;6281390;28;20457;-78
2023/04/18 07:45:21;;;;;;;8.60;4.68;;;;;;;8.06;100.00;102633.22;6283115;28;20049;-79
2023/04/18 07:48:24;;;;;;;8.07;3.35;;;;;;;8.10;100.00;102637.53;6283329;28;20052;-79
2023/04/18 07:51:30;;;;;;;6.68;3.70;;;;;;;8.23;100.00;102646.09;6283230;28;20052;-78
2023/04/18 07:54:31;;;;;;;7.80;3.90;;;;;;;8.28;100.00;102649.50;6283033;28;20053;-78
2023/04/18 07:57:33;;;;;;;15.70;4.15;;;;;;;8.43;100.00;102645.84;6282893;28;20051;-79
2023/04/18 08:00:37;;;;;;;12.88;3.88;;;;;;;8.45;98.39;102653.69;6282854;28;20052;-78
2023/04/18 08:03:39;;;;;;;7.97;4.20;;;;;;;8.52;98.68;102648.34;6282767;28;20135;-78
2023/04/18 08:06:40;;;;;;;8.57;3.35;;;;;;;8.57;96.43;102654.38;6282651;28;20049;-77
2023/04/18 08:09:42;;;;;;;8.18;3.67;;;;;;;8.61;97.86;102650.81;6283036;28;20088;-77
2023/04/18 08:12:43;;;;;;;6.20;3.90;;;;;;;8.67;97.89;102644.63;6279956;28;20358;-78
2023/04/18 08:15:46;;;;;;;8.38;3.92;;;;;;;8.80;98.44;102645.31;6278732;28;20068;-77
2023/04/18 08:18:48;;;;;;;5.22;2.97;;;;;;;8.77;97.79;102642.75;6282600;28;20045;-77
2023/04/18 08:21:50;;;;;;;7.05;3.53;;;;;;;8.68;96.31;102641.13;6282636;28;20049;-78
2023/04/18 08:24:52;;;;;;;8.48;4.07;;;;;;;8.57;97.12;102649.13;6283024;28;20092;-79
2023/04/18 08:27:54;;;;;;;7.20;3.60;;;;;;;8.63;97.92;102651.69;6282679;28;20441;-78
2023/04/18 08:30:56;;;;;;;8.02;3.80;;;;;;;8.78;99.52;102653.22;6282947;28;20092;-78
2023/04/18 08:33:58;;;;;;;8.68;3.95;;;;;;;8.96;98.06;102649.44;6282775;28;20103;-78
2023/04/18 08:36:59;;;;;;;6.00;3.08;;;;;;;9.14;97.80;102653.50;6282409;28;20048;-78
2023/04/18 08:40:02;;;;;;;8.93;3.88;;;;;;;9.35;94.53;102654.88;6282744;28;20044;-78
2023/04/18 08:43:08;;;;;;;9.20;4.05;;;;;;;9.48;90.66;102651.16;6282856;28;20049;-77
2023/04/18 08:46:11;;;;;;;6.32;3.67;;;;;;;9.54;89.61;102651.06;6282371;28;20041;-78
2023/04/18 08:49:12;;;;;;;10.10;3.47;;;;;;;9.59;87.18;102654.47;6282608;28;20056;-77
2023/04/18 08:52:15;;;;;;;7.47;3.67;;;;;;;9.65;88.75;102661.34;6281174;28;20049;-77
2023/04/18 08:55:17;;;;;;;7.85;3.13;;;;;;;9.83;88.58;102665.38;6278779;28;20500;-78
2023/04/18 08:58:22;;;;;;;13.57;6.95;;;;;;;9.87;86.92;102657.41;6277971;28;20067;-78
2023/04/18 09:01:55;;;;;;;8.43;3.65;;;;;;;9.98;87.67;102653.72;6277538;28;20084;-79
2023/04/18 09:04:56;;;;;;;6.78;3.97;;;;;;;10.03;88.38;102650.09;6266240;28;20377;-78
2023/04/18 09:07:57;;;;;;;7.85;3.35;;;;;;;10.12;88.02;102655.16;6253358;28;20045;-77
2023/04/18 09:11:20;;;;;;;3.70;2.75;;;;;;;10.13;85.37;102656.91;6255797;28;20049;-77
2023/04/18 09:14:24;;;;;;;4.43;2.70;;;;;;;10.10;84.16;102656.94;6278562;28;20052;-78
2023/04/18 09:17:36;;;;;;;11.43;3.25;;;;;;;10.10;85.29;102658.72;6277337;28;20441;-78
2023/04/18 09:20:39;;;;;;;10.35;3.70;;;;;;;9.99;83.87;102655.44;6275447;28;20076;-79
2023/04/18 09:23:41;;;;;;;5.60;3.40;;;;;;;9.91;84.77;102658.22;6275841;28;20358;-77
2023/04/18 09:26:42;;;;;;;8.43;3.55;;;;;;;9.94;84.68;102659.91;6276780;28;20041;-78
2023/04/18 09:29:46;;;;;;;4.18;2.85;;;;;;;10.01;82.69;102656.28;6277499;28;20055;-77
2023/04/18 09:32:57;;;;;;;6.85;3.47;;;;;;;10.04;84.03;102653.59;6277655;28;20052;-78
2023/04/18 09:36:17;;;;;;;5.18;2.60;;;;;;;10.16;82.63;102658.56;6275657;28;20106;-77
2023/04/18 09:39:27;;;;;;;6.85;3.10;;;;;;;10.31;81.24;102652.16;6273897;28;20075;-77
2023/04/18 09:42:35;;;;;;;4.53;2.50;;;;;;;10.43;79.40;102649.28;6277218;28;20345;-78
2023/04/18 09:45:37;;;;;;;6.75;2.90;;;;;;;10.46;79.08;102649.22;6277140;28;20052;-78
2023/04/18 09:48:40;;;;;;;4.45;2.08;;;;;;;10.54;78.73;102654.31;6276522;28;20037;-77
2023/04/18 09:51:43;;;;;;;4.35;2.30;;;;;;;10.70;80.22;102649.56;6276751;28;20052;-78
2023/04/18 09:54:47;;;;;;;5.30;2.47;;;;;;;10.62;78.59;102647.09;6276781;28;20051;-77
2023/04/18 09:57:50;;;;;;;3.35;2.45;;;;;;;10.59;76.18;102647.19;6276429;28;20052;-77
2023/04/18 10:00:54;;;;;;;4.80;2.08;;;;;;;10.69;77.91;102650.47;6274087;28;20064;-78
2023/04/18 10:03:57;;;;;;;4.10;2.63;;;;;;;10.73;78.48;102644.22;6276627;28;20045;-77
2023/04/18 10:06:59;;;;;;;5.80;3.45;;;;;;;10.72;77.54;102648.63;6276749;28;20052;-77
2023/04/18 10:10:00;;;;;;;7.93;3.88;;;;;;;10.77;76.60;102648.53;6277260;28;20071;-77
2023/04/18 10:13:03;;;;;;;14.07;5.50;;;;;;;10.77;77.42;102641.50;6267371;28;20064;-78
2023/04/18 10:16:05;;;;;;;5.43;2.67;;;;;;;10.74;75.78;102641.56;6252203;28;20045;-77
2023/04/18 10:19:22;;;;;;;5.88;3.08;;;;;;;10.85;77.09;102631.63;6251742;28;20465;-78
2023/04/18 10:22:27;;;;;;;3.40;2.35;;;;;;;11.18;76.73;102631.72;6261447;28;20510;-78
2023/04/18 10:25:49;;;;;;;4.10;2.50;;;;;;;11.44;74.92;102631.00;6276566;28;20064;-78
2023/04/18 10:28:53;;;;;;;6.88;2.63;;;;;;;11.47;73.34;102632.72;6270245;28;20053;-77
2023/04/18 10:31:55;;;;;;;4.25;2.30;;;;;;;11.46;72.39;102638.88;6276726;28;20041;-78
2023/04/18 10:34:59;;;;;;;4.72;2.60;;;;;;;11.48;73.28;102629.16;6276472;28;20448;-78
2023/04/18 10:38:01;;;;;;;3.88;2.13;;;;;;;11.51;72.05;102631.72;6275842;28;20049;-78
2023/04/18 10:41:27;;;;;;;2.95;2.13;;;;;;;11.56;72.22;102633.31;6276509;28;20445;-78
2023/04/18 10:44:29;;;;;;;5.10;2.42;;;;;;;11.62;74.80;102630.50;6261165;28;20060;-78
2023/04/18 10:47:30;;;;;;;4.88;2.78;;;;;;;11.80;71.83;102637.03;6275945;28;20049;-78
2023/04/18 10:50:33;;;;;;;2.80;2.05;;;;;;;11.84;72.63;102633.44;6276084;28;20049;-78
2023/04/18 10:53:34;;;;;;;4.05;2.60;;;;;;;11.76;72.18;102631.91;6275718;28;20048;-78
2023/04/18 10:56:36;;;;;;;3.10;2.13;;;;;;;11.67;72.11;102627.75;6275537;28;20041;-78
2023/04/18 10:59:39;;;;;;;6.80;2.50;;;;;;;11.70;72.26;102619.78;6274854;28;20052;-76
2023/04/18 11:02:48;;;;;;;3.10;2.13;;;;;;;11.87;73.19;102625.47;6274635;28;20124;-76
2023/04/18 11:06:01;;;;;;;4.95;2.38;;;;;;;12.26;69.05;102619.91;6275168;28;20059;-77
2023/04/18 11:09:09;;;;;;;5.72;2.33;;;;;;;12.10;68.32;102616.91;6275264;28;20056;-76
2023/04/18 11:12:11;;;;;;;3.83;2.47;;;;;;;11.96;69.43;102616.44;6273043;28;20377;-75
2023/04/18 11:15:16;;;;;;;3.63;2.15;;;;;;;11.86;69.14;102617.63;6250332;28;20049;-76
2023/04/18 11:18:18;;;;;;;4.07;2.50;;;;;;;11.98;68.78;102629.56;6250030;28;20052;-76
2023/04/18 11:21:21;;;;;;;4.65;3.15;;;;;;;11.91;70.54;102613.94;6253688;28;20049;-76
2023/04/18 11:24:23;;;;;;;3.65;2.78;;;;;;;11.91;72.13;102615.72;6275482;28;20049;-76
2023/04/18 11:27:25;;;;;;;5.05;2.83;;;;;;;11.90;69.57;102612.22;6275048;28;20041;-76
2023/04/18 11:30:27;;;;;;;4.68;2.50;;;;;;;12.10;72.29;102613.41;6275379;28;20057;-77
2023/04/18 11:33:30;;;;;;;4.03;2.45;;;;;;;12.08;67.15;102600.28;6275455;28;20049;-76
2023/04/18 11:36:36;;;;;;;3.72;2.00;;;;;;;11.87;68.09;102607.03;6274677;28;20139;-77
2023/04/18 11:39:41;;;;;;;4.90;2.13;;;;;;;12.05;69.10;102599.50;6275458;28;20049;-77
2023/04/18 11:42:42;;;;;;;7.43;2.80;;;;;;;12.57;68.53;102592.59;6275159;28;20365;-77
2023/04/18 11:45:51;;;;;;;4.32;1.95;;;;;;;12.91;67.12;102597.66;6275196;28;20472;-77
2023/04/18 11:48:52;;;;;;;6.50;2.70;;;;;;;13.12;66.11;102586.34;6274654;28;20056;-77
2023/04/18 11:51:55;;;;;;;4.18;2.35;;;;;;;13.39;66.34;102588.97;6274737;28;20053;-76
2023/04/18 11:54:58;;;;;;;4.38;2.13;;;;;;;13.36;63.89;102589.97;6274499;28;20045;-77
2023/04/18 11:58:01;;;;;;;2.63;1.67;;;;;;;13.60;66.40;102597.91;6274020;28;20045;-76
2023/04/18 12:01:16;;;;;;;4.38;2.20;;;;;;;14.08;64.06;102599.63;6275088;28;20134;-76
2023/04/18 12:04:17;;;;;;;4.65;2.10;;;;;;;13.99;61.11;102590.28;6274913;28;20049;-77
2023/04/18 12:07:34;;;;;;;3.92;1.85;;;;;;;13.49;63.27;102598.31;6267402;28;20060;-77
2023/04/18 12:10:36;;;;;;;4.03;1.70;;;;;;;13.35;64.33;102601.44;6268735;28;20484;-76
2023/04/18 12:13:37;;;;;;;4.13;2.20;;;;;;;13.00;64.75;102602.63;6271849;28;20437;-76
2023/04/18 12:16:41;;;;;;;3.95;2.40;;;;;;;12.91;66.96;102595.00;6274037;28;20049;-77
2023/04/18 12:19:44;;;;;;;2.22;1.80;;;;;;;13.43;66.72;102590.59;6274700;28;20048;-77
2023/04/18 12:22:48;;;;;;;4.07;2.10;;;;;;;13.55;64.53;102600.72;6274238;28;20060;-77
2023/04/18 12:25:58;;;;;;;4.45;2.55;;;;;;;13.49;64.45;102600.06;6274744;28;20138;-76
2023/04/18 12:29:00;;;;;;;5.05;2.20;;;;;;;13.87;64.62;102601.31;6278547;28;20045;-77
2023/04/18 12:32:02;;;;;;;3.90;2.00;;;;;;;14.34;62.78;102588.91;6274718;28;20156;-77
2023/04/18 12:35:05;;;;;;;3.45;2.03;;;;;;;14.67;63.04;102601.72;6277495;28;20465;-76
2023/04/18 12:38:07;;;;;;;2.83;1.92;;;;;;;14.63;59.48;102594.88;6279125;28;20041;-76
2023/04/18 12:41:09;;;;;;;6.43;2.42;;;;;;;14.30;62.11;102599.66;6278540;28;20053;-77
2023/04/18 12:44:10;;;;;;;4.45;2.40;;;;;;;14.48;61.81;102606.91;6279186;28;20049;-78
2023/04/18 12:47:11;;;;;;;7.47;2.53;;;;;;;14.33;62.39;102600.41;6278675;28;20052;-77
2023/04/18 12:50:16;;;;;;;4.22;2.17;;;;;;;14.25;60.59;102605.13;6278985;28;20052;-78
2023/04/18 12:53:20;;;;;;;8.88;2.92;;;;;;;13.58;60.32;102605.91;6278661;28;20084;-77
2023/04/18 12:56:21;;;;;;;7.45;2.13;;;;;;;13.29;62.07;102606.06;6278467;28;20048;-78
2023/04/18 12:59:22;;;;;;;6.82;2.50;;;;;;;13.75;65.33;102609.69;6278565;28;20353;-77
2023/04/18 13:02:25;;;;;;;3.70;2.33;;;;;;;14.03;62.40;102606.88;6278472;28;20063;-78
2023/04/18 13:05:28;;;;;;;4.30;2.35;;;;;;;14.07;60.29;102609.34;6278776;28;20056;-78
2023/04/18 13:08:30;;;;;;;4.53;2.63;;;;;;;14.46;61.58;102598.16;6278339;28;20052;-78
2023/04/18 13:11:32;;;;;;;5.28;2.58;;;;;;;14.63;59.63;102587.78;6278497;28;20452;-77
2023/04/18 13:14:33;;;;;;;5.82;2.45;;;;;;;14.95;58.26;102593.53;6273743;28;20681;-78
2023/04/18 13:17:36;;;;;;;4.60;2.70;;;;;;;14.70;56.77;102591.03;6277803;28;20052;-78
2023/04/18 13:20:37;;;;;;;3.60;2.20;;;;;;;14.81;59.17;102593.25;6278282;28;20122;-77
2023/04/18 13:23:41;;;;;;;4.28;2.20;;;;;;;14.91;58.84;102591.94;6278043;28;20437;-78
2023/04/18 13:26:42;;;;;;;7.00;2.88;;;;;;;15.05;56.16;102596.66;6277901;28;20433;-77
2023/04/18 13:29:44;;;;;;;4.88;2.47;;;;;;;15.13;56.59;102591.88;6278112;28;20052;-78
2023/04/18 13:32:46;;;;;;;4.00;2.22;;;;;;;15.23;55.72;102587.91;6278065;28;20502;-78
2023/04/18 13:35:47;;;;;;;4.80;2.35;;;;;;;15.21;54.91;102582.69;6277737;28;20460;-78
2023/04/18 13:38:50;;;;;;;3.80;2.25;;;;;;;15.40;58.04;102581.88;6275765;28;20052;-79
2023/04/18 13:41:53;;;;;;;3.85;1.90;;;;;;;15.42;54.82;102582.66;6277601;28;20060;-80
2023/04/18 13:44:54;;;;;;;3.85;1.90;;;;;;;15.31;54.10;102576.97;6277553;28;20064;-80
2023/04/18 13:47:55;;;;;;;5.88;2.75;;;;;;;15.50;55.38;102583.19;6277335;28;20345;-80
2023/04/18 13:50:57;;;;;;;3.53;2.00;;;;;;;15.62;53.41;102579.09;6277696;28;20052;-80
2023/04/18 13:54:00;;;;;;;5.20;2.20;;;;;;;15.84;56.57;102571.94;6277274;28;20437;-79
2023/04/18 13:57:02;;;;;;;3.35;1.90;;;;;;;15.86;53.86;102583.34;6277102;28;20049;-79
2023/04/18 14:00:07;;;;;;;5.63;2.28;;;;;;;15.91;54.51;102575.16;6277539;28;20113;-79
2023/04/18 14:03:10;;;;;;;3.33;1.75;;;;;;;16.20;55.61;102577.28;6277402;28;20049;-79
2023/04/18 14:06:11;;;;;;;5.00;2.05;;;;;;;16.22;54.00;102579.91;6277044;28;20053;-78
2023/04/18 14:09:15;;;;;;;2.78;1.33;;;;;;;16.39;55.28;102568.44;6276931;28;20119;-81